createdAt,value
2022-09-13T00:00:49.672Z,92.39
2022-09-13T00:06:23.170Z,92.40
2022-09-13T00:11:29.705Z,92.34
2022-09-13T00:16:34.818Z,92.47
2022-09-13T00:21:38.020Z,92.46
2022-09-13T00:26:41.383Z,92.74
2022-09-13T00:31:45.223Z,92.59
2022-09-13T00:36:48.571Z,92.73
2022-09-13T00:41:53.505Z,92.20
2022-09-13T00:46:56.725Z,91.80
2022-09-13T00:52:10.986Z,91.27
2022-09-13T00:57:17.759Z,91.52
2022-09-13T01:02:21.798Z,91.72
2022-09-13T01:07:25.058Z,91.67
2022-09-13T01:12:53.837Z,91.62
2022-09-13T01:17:57.270Z,92.00
2022-09-13T01:23:36.929Z,92.10
2022-09-13T01:28:57.020Z,92.15
2022-09-13T01:34:03.096Z,92.22
2022-09-13T01:39:12.790Z,92.36
2022-09-13T01:44:48.578Z,92.22
2022-09-13T01:50:42.856Z,91.33
2022-09-13T01:55:51.053Z,91.15
2022-09-13T02:01:02.741Z,91.59
2022-09-13T02:06:12.046Z,92.01
2022-09-13T02:11:17.593Z,91.49
2022-09-13T02:16:44.761Z,91.99
2022-09-13T02:21:59.379Z,92.16
2022-09-13T02:27:10.251Z,92.12
2022-09-13T02:32:19.101Z,91.85
2022-09-13T02:37:30.542Z,91.84
2022-09-13T02:42:59.109Z,91.91
2022-09-13T02:48:11.370Z,91.77
2022-09-13T02:53:46.699Z,91.70
2022-09-13T02:59:20.730Z,91.72
2022-09-13T03:04:27.709Z,91.81
2022-09-13T03:09:38.112Z,92.07
2022-09-13T03:14:57.513Z,92.08
2022-09-13T03:20:38.932Z,92.21
2022-09-13T03:26:24.469Z,92.31
2022-09-13T03:31:41.072Z,92.35
2022-09-13T03:37:05.275Z,92.34
2022-09-13T03:42:24.512Z,92.23
2022-09-13T03:47:32.650Z,92.09
2022-09-13T03:52:36.553Z,92.30
2022-09-13T03:57:42.260Z,92.35
2022-09-13T04:02:51.126Z,92.55
2022-09-13T04:07:59.255Z,92.58
2022-09-13T04:13:02.545Z,92.53
2022-09-13T04:18:06.104Z,92.68
2022-09-13T04:23:11.742Z,92.92
2022-09-13T04:28:17.415Z,93.01
2022-09-13T04:33:21.880Z,93.11
2022-09-13T04:38:25.101Z,93.00
2022-09-13T04:43:35.529Z,93.04
2022-09-13T04:48:38.976Z,93.03
2022-09-13T04:53:45.870Z,92.97
2022-09-13T04:58:51.297Z,92.86
2022-09-13T05:03:55.065Z,92.72
2022-09-13T05:08:59.300Z,92.53
2022-09-13T05:14:02.654Z,92.37
2022-09-13T05:19:09.266Z,92.22
2022-09-13T05:24:12.499Z,92.10
2022-09-13T05:29:15.949Z,91.94
2022-09-13T05:34:19.961Z,91.64
2022-09-13T05:39:34.004Z,91.33
2022-09-13T05:44:42.927Z,91.43
2022-09-13T05:50:08.625Z,91.35
2022-09-13T05:55:10.222Z,91.32
2022-09-13T06:00:18.518Z,91.39
2022-09-13T06:05:22.049Z,91.47
2022-09-13T06:10:25.610Z,91.13
2022-09-13T06:15:28.937Z,90.74
2022-09-13T06:20:32.862Z,90.40
2022-09-13T06:25:36.079Z,90.30
2022-09-13T06:30:39.471Z,89.85
2022-09-13T06:35:43.142Z,89.07
2022-09-13T06:40:46.905Z,88.70
2022-09-13T06:45:51.026Z,87.69
2022-09-13T06:50:58.816Z,86.87
2022-09-13T06:56:04.970Z,85.75
2022-09-13T07:01:29.698Z,86.15
2022-09-13T07:06:37.979Z,85.51
2022-09-13T07:11:42.403Z,84.83
2022-09-13T07:16:47.248Z,84.59
2022-09-13T07:21:50.914Z,84.19
2022-09-13T07:26:54.723Z,84.31
2022-09-13T07:31:58.940Z,84.40
2022-09-13T07:37:02.869Z,84.15
2022-09-13T07:42:06.268Z,81.52
2022-09-13T07:47:09.723Z,80.71
2022-09-13T07:52:12.990Z,77.81
2022-09-13T07:57:16.403Z,77.20
2022-09-13T08:02:19.796Z,75.52
2022-09-13T08:07:23.319Z,75.80
2022-09-13T08:12:26.518Z,74.60
2022-09-13T08:17:29.990Z,74.59
2022-09-13T08:22:33.343Z,73.18
2022-09-13T08:27:36.726Z,72.33
2022-09-13T08:32:39.953Z,72.48
2022-09-13T08:37:43.995Z,72.98
2022-09-13T08:42:54.624Z,71.91
2022-09-13T08:48:21.694Z,73.20
2022-09-13T08:53:30.399Z,70.93
2022-09-13T08:59:00.157Z,70.00
2022-09-13T09:04:21.557Z,71.27
2022-09-13T09:09:26.826Z,69.22
2022-09-13T09:14:40.259Z,66.78
2022-09-13T09:19:48.266Z,66.59
2022-09-13T09:24:55.095Z,64.52
2022-09-13T09:29:58.607Z,63.72
2022-09-13T09:35:21.165Z,66.12
2022-09-13T09:40:26.495Z,62.61
2022-09-13T09:45:35.066Z,62.06
2022-09-13T09:50:43.901Z,64.37
2022-09-13T09:55:55.366Z,64.08
2022-09-13T10:00:59.512Z,61.87
2022-09-13T10:06:10.335Z,62.61
2022-09-13T10:11:13.819Z,65.26
2022-09-13T10:16:30.131Z,65.63
2022-09-13T10:21:36.854Z,67.51
2022-09-13T10:26:40.653Z,68.67
2022-09-13T10:31:46.451Z,69.38
2022-09-13T10:37:06.519Z,70.52
2022-09-13T10:42:11.127Z,70.49
2022-09-13T10:47:26.532Z,70.11
2022-09-13T10:52:35.537Z,69.58
2022-09-13T10:57:38.878Z,68.45
2022-09-13T11:02:54.572Z,67.19
2022-09-13T11:08:22.038Z,66.47
2022-09-13T11:13:53.508Z,64.43
2022-09-13T11:19:37.614Z,61.96
2022-09-13T11:25:02.171Z,61.80
2022-09-13T11:30:20.551Z,60.95
2022-09-13T11:36:09.677Z,58.49
2022-09-13T11:41:51.272Z,60.50
2022-09-13T11:47:14.485Z,56.84
2022-09-13T11:52:55.564Z,56.73
2022-09-13T11:58:02.154Z,57.33
2022-09-13T12:03:11.493Z,58.03
2022-09-13T12:08:22.877Z,60.35
2022-09-13T12:13:42.845Z,60.77
2022-09-13T12:18:54.810Z,60.62
2022-09-13T12:24:01.051Z,59.97
2022-09-13T12:29:26.678Z,61.50
2022-09-13T12:34:55.574Z,61.86
2022-09-13T12:40:12.413Z,62.75
2022-09-13T12:45:34.182Z,62.54
2022-09-13T12:51:02.415Z,62.33
2022-09-13T12:56:23.291Z,62.36
2022-09-13T13:01:35.006Z,62.23
2022-09-13T13:06:40.886Z,62.93
2022-09-13T13:11:47.687Z,63.04
2022-09-13T13:16:51.308Z,63.85
2022-09-13T13:21:55.085Z,62.96
2022-09-13T13:27:00.902Z,63.57
2022-09-13T13:32:12.430Z,62.43
2022-09-13T13:37:16.139Z,61.96
2022-09-13T13:42:28.069Z,62.87
2022-09-13T13:47:34.396Z,62.26
2022-09-13T13:52:41.588Z,61.38
2022-09-13T13:58:07.903Z,61.85
2022-09-13T14:03:24.390Z,61.54
2022-09-13T14:08:37.000Z,62.09
2022-09-13T14:14:07.366Z,61.83
2022-09-13T14:19:29.139Z,61.77
2022-09-13T14:24:40.025Z,62.11
2022-09-13T14:29:49.330Z,60.36
2022-09-13T14:34:58.738Z,61.94
2022-09-13T14:46:39.430Z,60.15
2022-09-13T14:52:10.551Z,61.49
2022-09-13T14:57:51.430Z,61.71
2022-09-13T15:03:04.384Z,61.02
2022-09-13T15:08:51.411Z,61.36
2022-09-13T15:14:20.488Z,62.07
2022-09-13T15:19:25.445Z,63.14
2022-09-13T15:24:43.646Z,64.08
2022-09-13T15:30:02.700Z,64.63
2022-09-13T15:35:37.332Z,64.39
2022-09-13T15:40:53.625Z,63.67
2022-09-13T15:45:58.557Z,64.01
2022-09-13T15:51:11.002Z,63.99
2022-09-13T15:56:22.030Z,63.86
2022-09-13T16:01:27.898Z,64.74
2022-09-13T16:06:33.144Z,64.39
2022-09-13T16:11:36.382Z,64.90
2022-09-13T16:16:42.234Z,65.21
2022-09-13T16:21:47.065Z,65.11
2022-09-13T16:26:52.206Z,64.78
2022-09-13T16:32:00.596Z,65.12
2022-09-13T16:37:05.098Z,66.09
2022-09-13T16:42:14.526Z,66.09
2022-09-13T16:47:18.660Z,66.19
2022-09-13T16:52:21.988Z,66.31
2022-09-13T16:57:26.415Z,66.82
2022-09-13T17:02:30.648Z,67.07
2022-09-13T17:07:35.238Z,67.65
2022-09-13T17:12:39.424Z,67.70
2022-09-13T17:17:44.078Z,68.24
2022-09-13T17:22:49.643Z,68.86
2022-09-13T17:27:59.749Z,68.85
2022-09-13T17:33:12.182Z,69.06
2022-09-13T17:44:23.322Z,69.07
2022-09-13T17:49:31.225Z,69.35
2022-09-13T17:54:43.545Z,70.27
2022-09-13T17:59:53.482Z,70.22
2022-09-13T18:05:05.715Z,70.16
2022-09-13T18:10:45.701Z,70.27
2022-09-13T18:16:20.708Z,70.48
2022-09-13T18:21:31.049Z,70.80
2022-09-13T18:26:44.563Z,70.86
2022-09-13T18:31:53.712Z,72.28
2022-09-13T18:37:12.832Z,70.62
2022-09-13T18:42:33.368Z,70.69
2022-09-13T18:47:47.905Z,71.11
2022-09-13T18:52:57.019Z,71.98
2022-09-13T18:58:08.696Z,72.19
2022-09-13T19:03:26.335Z,72.51
2022-09-13T19:08:32.474Z,73.04
2022-09-13T19:13:41.910Z,73.22
2022-09-13T19:18:53.680Z,73.70
2022-09-13T19:24:10.716Z,73.89
2022-09-13T19:29:22.709Z,73.76
2022-09-13T19:34:28.749Z,73.81
2022-09-13T19:39:36.742Z,74.50
2022-09-13T19:44:49.901Z,74.52
2022-09-13T19:49:56.209Z,74.85
2022-09-13T19:55:04.059Z,75.04
2022-09-13T20:00:09.675Z,75.66
2022-09-13T20:05:13.583Z,76.27
2022-09-13T20:10:18.393Z,76.68
2022-09-13T20:15:27.440Z,77.04
2022-09-13T20:20:31.938Z,77.46
2022-09-13T20:25:40.292Z,77.87
2022-09-13T20:31:28.942Z,78.19
2022-09-13T20:36:39.529Z,78.66
2022-09-13T20:41:56.042Z,79.19
2022-09-13T20:47:12.858Z,80.85
2022-09-13T20:52:24.780Z,80.68
2022-09-13T20:57:36.192Z,80.35
2022-09-13T21:02:44.663Z,80.63
2022-09-13T21:08:10.756Z,80.45
2022-09-13T21:13:17.060Z,80.99
2022-09-13T21:18:20.723Z,81.79
2022-09-13T21:23:24.956Z,82.13
2022-09-13T21:28:31.380Z,82.94
2022-09-13T21:33:35.876Z,83.28
2022-09-13T21:38:40.196Z,83.38
2022-09-13T21:43:43.878Z,83.83
2022-09-13T21:48:53.734Z,84.29
2022-09-13T21:53:59.479Z,85.17
2022-09-13T21:59:05.823Z,85.94
2022-09-13T22:04:17.281Z,86.85
2022-09-13T22:09:23.317Z,87.04
2022-09-13T22:14:26.835Z,87.34
2022-09-13T22:19:31.879Z,87.34
2022-09-13T22:24:40.618Z,86.59
2022-09-13T22:29:44.081Z,86.50
2022-09-13T22:34:49.088Z,86.85
2022-09-13T22:39:53.189Z,86.51
2022-09-13T22:44:56.675Z,86.03
2022-09-13T22:50:02.238Z,85.68
2022-09-13T22:55:07.381Z,85.67
2022-09-13T23:00:14.755Z,85.80
2022-09-13T23:05:19.372Z,85.81
2022-09-13T23:10:33.318Z,85.76
2022-09-13T23:15:42.898Z,86.26
2022-09-13T23:21:02.609Z,86.31
2022-09-13T23:26:11.463Z,86.51
2022-09-13T23:31:16.259Z,86.58
2022-09-13T23:36:23.124Z,85.56
2022-09-13T23:41:31.414Z,85.47
2022-09-13T23:46:45.293Z,85.86
2022-09-13T23:51:50.867Z,86.11
2022-09-13T23:56:57.196Z,86.14
